sensor_id;sensor_type;location;lat;lon;timestamp;P1;durP1;ratioP1;P2;durP2;ratioP2
65471;SDS011;52068;50.710;14.492;2023-11-22T00:01:10;2.40;;;2.10;;
65471;SDS011;52068;50.710;14.492;2023-11-22T00:03:35;3.28;;;2.22;;
65471;SDS011;52068;50.710;14.492;2023-11-22T00:06:00;3.00;;;1.83;;
65471;SDS011;52068;50.710;14.492;2023-11-22T00:08:29;4.18;;;1.90;;
65471;SDS011;52068;50.710;14.492;2023-11-22T00:10:54;2.03;;;1.70;;
65471;SDS011;52068;50.710;14.492;2023-11-22T00:13:20;6.40;;;1.83;;
65471;SDS011;52068;50.710;14.492;2023-11-22T00:15:45;3.92;;;2.03;;
65471;SDS011;52068;50.710;14.492;2023-11-22T00:18:10;3.10;;;2.15;;
65471;SDS011;52068;50.710;14.492;2023-11-22T00:20:36;2.70;;;1.58;;
65471;SDS011;52068;50.710;14.492;2023-11-22T00:23:01;2.60;;;2.00;;
65471;SDS011;52068;50.710;14.492;2023-11-22T00:25:28;2.13;;;1.73;;
65471;SDS011;52068;50.710;14.492;2023-11-22T00:27:53;2.30;;;1.83;;
65471;SDS011;52068;50.710;14.492;2023-11-22T00:30:20;2.13;;;1.77;;
65471;SDS011;52068;50.710;14.492;2023-11-22T00:32:46;2.10;;;1.90;;
65471;SDS011;52068;50.710;14.492;2023-11-22T00:35:11;2.75;;;2.10;;
65471;SDS011;52068;50.710;14.492;2023-11-22T00:37:37;1.95;;;1.75;;
65471;SDS011;52068;50.710;14.492;2023-11-22T00:40:03;2.30;;;1.63;;
65471;SDS011;52068;50.710;14.492;2023-11-22T00:45:03;3.78;;;1.65;;
65471;SDS011;52068;50.710;14.492;2023-11-22T00:47:31;2.13;;;1.63;;
65471;SDS011;52068;50.710;14.492;2023-11-22T00:49:59;8.32;;;2.00;;
65471;SDS011;52068;50.710;14.492;2023-11-22T00:52:24;2.92;;;1.80;;
65471;SDS011;52068;50.710;14.492;2023-11-22T00:54:50;2.33;;;1.70;;
65471;SDS011;52068;50.710;14.492;2023-11-22T00:57:15;4.30;;;1.63;;
65471;SDS011;52068;50.710;14.492;2023-11-22T00:59:41;2.60;;;2.03;;
65471;SDS011;52068;50.710;14.492;2023-11-22T01:02:07;3.47;;;1.90;;
65471;SDS011;52068;50.710;14.492;2023-11-22T01:04:34;2.85;;;2.00;;
65471;SDS011;52068;50.710;14.492;2023-11-22T01:07:01;2.40;;;1.60;;
65471;SDS011;52068;50.710;14.492;2023-11-22T01:09:26;2.40;;;1.95;;
65471;SDS011;52068;50.710;14.492;2023-11-22T01:11:53;2.17;;;1.80;;
65471;SDS011;52068;50.710;14.492;2023-11-22T01:14:19;2.58;;;1.60;;
65471;SDS011;52068;50.710;14.492;2023-11-22T01:16:44;2.13;;;1.63;;
65471;SDS011;52068;50.710;14.492;2023-11-22T01:19:10;1.60;;;1.50;;
65471;SDS011;52068;50.710;14.492;2023-11-22T01:21:36;2.40;;;1.88;;
65471;SDS011;52068;50.710;14.492;2023-11-22T01:24:01;4.68;;;1.70;;
65471;SDS011;52068;50.710;14.492;2023-11-22T01:26:27;2.47;;;1.70;;
65471;SDS011;52068;50.710;14.492;2023-11-22T01:28:52;2.05;;;1.65;;
65471;SDS011;52068;50.710;14.492;2023-11-22T01:31:18;1.73;;;1.63;;
65471;SDS011;52068;50.710;14.492;2023-11-22T01:33:46;1.73;;;1.60;;
65471;SDS011;52068;50.710;14.492;2023-11-22T01:36:12;3.35;;;1.88;;
65471;SDS011;52068;50.710;14.492;2023-11-22T01:38:38;2.85;;;1.50;;
65471;SDS011;52068;50.710;14.492;2023-11-22T01:41:04;4.15;;;1.77;;
65471;SDS011;52068;50.710;14.492;2023-11-22T01:43:30;3.92;;;1.70;;
65471;SDS011;52068;50.710;14.492;2023-11-22T01:45:56;2.30;;;1.80;;
65471;SDS011;52068;50.710;14.492;2023-11-22T01:48:21;2.97;;;1.60;;
65471;SDS011;52068;50.710;14.492;2023-11-22T01:50:47;3.63;;;1.70;;
65471;SDS011;52068;50.710;14.492;2023-11-22T01:53:13;1.58;;;1.48;;
65471;SDS011;52068;50.710;14.492;2023-11-22T01:55:41;1.80;;;1.70;;
65471;SDS011;52068;50.710;14.492;2023-11-22T01:58:08;1.88;;;1.63;;
65471;SDS011;52068;50.710;14.492;2023-11-22T02:00:50;1.83;;;1.63;;
65471;SDS011;52068;50.710;14.492;2023-11-22T02:03:16;1.88;;;1.45;;
65471;SDS011;52068;50.710;14.492;2023-11-22T02:05:42;1.75;;;1.60;;
65471;SDS011;52068;50.710;14.492;2023-11-22T02:08:09;2.20;;;1.60;;
65471;SDS011;52068;50.710;14.492;2023-11-22T02:10:35;1.88;;;1.50;;
65471;SDS011;52068;50.710;14.492;2023-11-22T02:13:02;1.67;;;1.58;;
65471;SDS011;52068;50.710;14.492;2023-11-22T02:15:30;2.28;;;1.60;;
65471;SDS011;52068;50.710;14.492;2023-11-22T02:17:56;4.93;;;1.73;;
65471;SDS011;52068;50.710;14.492;2023-11-22T02:20:22;3.83;;;1.50;;
65471;SDS011;52068;50.710;14.492;2023-11-22T02:22:47;3.00;;;1.90;;
65471;SDS011;52068;50.710;14.492;2023-11-22T02:25:13;2.15;;;1.63;;
65471;SDS011;52068;50.710;14.492;2023-11-22T02:27:40;2.20;;;1.77;;
65471;SDS011;52068;50.710;14.492;2023-11-22T02:30:06;2.03;;;1.80;;
65471;SDS011;52068;50.710;14.492;2023-11-22T02:32:31;2.00;;;1.70;;
65471;SDS011;52068;50.710;14.492;2023-11-22T02:34:58;2.75;;;1.63;;
65471;SDS011;52068;50.710;14.492;2023-11-22T02:37:24;2.85;;;1.60;;
65471;SDS011;52068;50.710;14.492;2023-11-22T02:42:45;1.73;;;1.60;;
65471;SDS011;52068;50.710;14.492;2023-11-22T02:45:11;1.70;;;1.60;;
65471;SDS011;52068;50.710;14.492;2023-11-22T02:47:37;2.45;;;1.50;;
65471;SDS011;52068;50.710;14.492;2023-11-22T02:50:03;1.73;;;1.60;;
65471;SDS011;52068;50.710;14.492;2023-11-22T02:52:30;4.00;;;1.80;;
65471;SDS011;52068;50.710;14.492;2023-11-22T02:54:56;10.52;;;1.92;;
65471;SDS011;52068;50.710;14.492;2023-11-22T02:57:21;2.95;;;1.65;;
65471;SDS011;52068;50.710;14.492;2023-11-22T02:59:47;2.50;;;1.88;;
65471;SDS011;52068;50.710;14.492;2023-11-22T03:02:12;13.50;;;1.65;;
65471;SDS011;52068;50.710;14.492;2023-11-22T03:04:38;2.42;;;1.70;;
65471;SDS011;52068;50.710;14.492;2023-11-22T03:07:03;2.00;;;1.52;;
65471;SDS011;52068;50.710;14.492;2023-11-22T03:09:31;2.45;;;1.60;;
65471;SDS011;52068;50.710;14.492;2023-11-22T03:11:57;3.35;;;1.90;;
65471;SDS011;52068;50.710;14.492;2023-11-22T03:14:22;2.13;;;1.90;;
65471;SDS011;52068;50.710;14.492;2023-11-22T03:16:48;1.90;;;1.80;;
65471;SDS011;52068;50.710;14.492;2023-11-22T03:19:14;2.00;;;1.80;;
65471;SDS011;52068;50.710;14.492;2023-11-22T03:21:39;2.22;;;1.90;;
65471;SDS011;52068;50.710;14.492;2023-11-22T03:24:06;2.10;;;1.90;;
65471;SDS011;52068;50.710;14.492;2023-11-22T03:26:33;3.00;;;2.03;;
65471;SDS011;52068;50.710;14.492;2023-11-22T03:28:59;1.98;;;1.77;;
65471;SDS011;52068;50.710;14.492;2023-11-22T03:31:24;2.45;;;1.92;;
65471;SDS011;52068;50.710;14.492;2023-11-22T03:33:50;2.72;;;2.00;;
65471;SDS011;52068;50.710;14.492;2023-11-22T03:36:16;2.80;;;1.80;;
65471;SDS011;52068;50.710;14.492;2023-11-22T03:38:41;2.47;;;1.95;;
65471;SDS011;52068;50.710;14.492;2023-11-22T03:41:06;2.03;;;1.65;;
65471;SDS011;52068;50.710;14.492;2023-11-22T03:43:32;2.50;;;2.08;;
65471;SDS011;52068;50.710;14.492;2023-11-22T03:45:57;2.08;;;1.88;;
65471;SDS011;52068;50.710;14.492;2023-11-22T03:48:23;1.90;;;1.67;;
65471;SDS011;52068;50.710;14.492;2023-11-22T03:50:49;1.95;;;1.60;;
65471;SDS011;52068;50.710;14.492;2023-11-22T03:53:15;2.67;;;1.92;;
65471;SDS011;52068;50.710;14.492;2023-11-22T03:55:40;2.28;;;2.00;;
65471;SDS011;52068;50.710;14.492;2023-11-22T03:58:05;2.83;;;1.95;;
65471;SDS011;52068;50.710;14.492;2023-11-22T04:00:31;2.88;;;1.90;;
65471;SDS011;52068;50.710;14.492;2023-11-22T04:02:57;4.03;;;2.00;;
65471;SDS011;52068;50.710;14.492;2023-11-22T04:05:25;5.25;;;2.20;;
65471;SDS011;52068;50.710;14.492;2023-11-22T04:07:51;2.65;;;2.13;;
65471;SDS011;52068;50.710;14.492;2023-11-22T04:10:16;2.33;;;2.13;;
65471;SDS011;52068;50.710;14.492;2023-11-22T04:12:42;2.33;;;2.05;;
65471;SDS011;52068;50.710;14.492;2023-11-22T04:15:07;2.80;;;2.38;;
65471;SDS011;52068;50.710;14.492;2023-11-22T04:17:36;3.33;;;2.28;;
65471;SDS011;52068;50.710;14.492;2023-11-22T04:20:03;3.10;;;2.35;;
65471;SDS011;52068;50.710;14.492;2023-11-22T04:22:34;3.33;;;2.55;;
65471;SDS011;52068;50.710;14.492;2023-11-22T04:24:59;2.72;;;2.40;;
65471;SDS011;52068;50.710;14.492;2023-11-22T04:27:26;2.30;;;2.03;;
65471;SDS011;52068;50.710;14.492;2023-11-22T04:29:51;3.03;;;2.33;;
65471;SDS011;52068;50.710;14.492;2023-11-22T04:32:16;2.47;;;2.10;;
65471;SDS011;52068;50.710;14.492;2023-11-22T04:34:42;2.95;;;2.30;;
65471;SDS011;52068;50.710;14.492;2023-11-22T04:37:07;2.53;;;2.20;;
65471;SDS011;52068;50.710;14.492;2023-11-22T04:39:33;1.98;;;1.83;;
65471;SDS011;52068;50.710;14.492;2023-11-22T04:41:59;2.63;;;2.30;;
65471;SDS011;52068;50.710;14.492;2023-11-22T04:44:24;3.17;;;2.25;;
65471;SDS011;52068;50.710;14.492;2023-11-22T04:46:50;2.58;;;2.38;;
65471;SDS011;52068;50.710;14.492;2023-11-22T04:49:16;3.63;;;2.50;;
65471;SDS011;52068;50.710;14.492;2023-11-22T04:51:42;2.80;;;2.45;;
65471;SDS011;52068;50.710;14.492;2023-11-22T04:54:08;2.42;;;2.22;;
65471;SDS011;52068;50.710;14.492;2023-11-22T04:56:33;2.70;;;2.50;;
65471;SDS011;52068;50.710;14.492;2023-11-22T04:58:59;3.33;;;2.35;;
65471;SDS011;52068;50.710;14.492;2023-11-22T05:01:24;2.53;;;2.30;;
65471;SDS011;52068;50.710;14.492;2023-11-22T05:03:50;2.95;;;2.40;;
65471;SDS011;52068;50.710;14.492;2023-11-22T05:06:16;3.03;;;2.40;;
65471;SDS011;52068;50.710;14.492;2023-11-22T05:08:41;2.78;;;2.55;;
65471;SDS011;52068;50.710;14.492;2023-11-22T05:11:07;2.78;;;2.42;;
65471;SDS011;52068;50.710;14.492;2023-11-22T05:13:33;2.40;;;2.15;;
65471;SDS011;52068;50.710;14.492;2023-11-22T05:15:59;2.72;;;2.50;;
65471;SDS011;52068;50.710;14.492;2023-11-22T05:18:25;3.95;;;2.70;;
65471;SDS011;52068;50.710;14.492;2023-11-22T05:20:51;3.35;;;2.70;;
65471;SDS011;52068;50.710;14.492;2023-11-22T05:23:16;2.78;;;2.53;;
65471;SDS011;52068;50.710;14.492;2023-11-22T05:25:42;3.78;;;2.78;;
65471;SDS011;52068;50.710;14.492;2023-11-22T05:28:07;3.47;;;2.85;;
65471;SDS011;52068;50.710;14.492;2023-11-22T05:30:32;3.53;;;2.83;;
65471;SDS011;52068;50.710;14.492;2023-11-22T05:32:58;3.75;;;2.50;;
65471;SDS011;52068;50.710;14.492;2023-11-22T05:35:23;3.88;;;2.88;;
65471;SDS011;52068;50.710;14.492;2023-11-22T05:37:48;4.35;;;2.80;;
65471;SDS011;52068;50.710;14.492;2023-11-22T05:40:14;5.35;;;2.63;;
65471;SDS011;52068;50.710;14.492;2023-11-22T05:42:41;3.10;;;2.60;;
65471;SDS011;52068;50.710;14.492;2023-11-22T05:45:06;3.15;;;2.50;;
65471;SDS011;52068;50.710;14.492;2023-11-22T05:47:33;5.07;;;2.65;;
65471;SDS011;52068;50.710;14.492;2023-11-22T05:49:58;5.00;;;2.75;;
65471;SDS011;52068;50.710;14.492;2023-11-22T05:52:23;4.28;;;3.22;;
65471;SDS011;52068;50.710;14.492;2023-11-22T05:54:49;3.83;;;2.85;;
65471;SDS011;52068;50.710;14.492;2023-11-22T05:57:14;8.38;;;2.92;;
65471;SDS011;52068;50.710;14.492;2023-11-22T05:59:40;3.15;;;2.85;;
65471;SDS011;52068;50.710;14.492;2023-11-22T06:02:06;4.43;;;2.95;;
65471;SDS011;52068;50.710;14.492;2023-11-22T06:04:31;3.47;;;2.90;;
65471;SDS011;52068;50.710;14.492;2023-11-22T06:06:57;3.92;;;2.95;;
65471;SDS011;52068;50.710;14.492;2023-11-22T06:09:22;4.25;;;2.67;;
65471;SDS011;52068;50.710;14.492;2023-11-22T06:11:48;3.78;;;3.00;;
65471;SDS011;52068;50.710;14.492;2023-11-22T06:14:13;3.67;;;3.15;;
65471;SDS011;52068;50.710;14.492;2023-11-22T06:16:39;8.15;;;5.18;;
65471;SDS011;52068;50.710;14.492;2023-11-22T06:19:04;13.65;;;5.25;;
65471;SDS011;52068;50.710;14.492;2023-11-22T06:21:30;7.63;;;5.72;;
65471;SDS011;52068;50.710;14.492;2023-11-22T06:23:55;6.82;;;5.32;;
65471;SDS011;52068;50.710;14.492;2023-11-22T06:26:23;7.18;;;5.25;;
65471;SDS011;52068;50.710;14.492;2023-11-22T06:28:49;10.27;;;5.22;;
65471;SDS011;52068;50.710;14.492;2023-11-22T06:31:15;6.70;;;5.10;;
65471;SDS011;52068;50.710;14.492;2023-11-22T06:33:40;5.40;;;4.55;;
65471;SDS011;52068;50.710;14.492;2023-11-22T06:36:06;6.57;;;4.78;;
65471;SDS011;52068;50.710;14.492;2023-11-22T06:38:31;6.88;;;5.20;;
65471;SDS011;52068;50.710;14.492;2023-11-22T06:40:57;6.90;;;5.25;;
65471;SDS011;52068;50.710;14.492;2023-11-22T06:43:23;6.00;;;4.97;;
65471;SDS011;52068;50.710;14.492;2023-11-22T06:45:48;5.53;;;4.47;;
65471;SDS011;52068;50.710;14.492;2023-11-22T06:48:13;7.85;;;5.30;;
65471;SDS011;52068;50.710;14.492;2023-11-22T06:50:39;6.63;;;5.53;;
65471;SDS011;52068;50.710;14.492;2023-11-22T06:53:04;7.60;;;5.32;;
65471;SDS011;52068;50.710;14.492;2023-11-22T06:55:31;6.50;;;5.72;;
65471;SDS011;52068;50.710;14.492;2023-11-22T06:57:58;10.95;;;6.03;;
65471;SDS011;52068;50.710;14.492;2023-11-22T07:00:24;8.88;;;4.90;;
65471;SDS011;52068;50.710;14.492;2023-11-22T07:02:51;7.90;;;4.80;;
65471;SDS011;52068;50.710;14.492;2023-11-22T07:05:16;9.02;;;4.68;;
65471;SDS011;52068;50.710;14.492;2023-11-22T07:07:42;10.02;;;4.68;;
65471;SDS011;52068;50.710;14.492;2023-11-22T07:10:07;7.32;;;4.30;;
65471;SDS011;52068;50.710;14.492;2023-11-22T07:12:33;8.00;;;4.25;;
65471;SDS011;52068;50.710;14.492;2023-11-22T07:15:02;11.05;;;4.53;;
65471;SDS011;52068;50.710;14.492;2023-11-22T07:17:30;8.70;;;4.60;;
65471;SDS011;52068;50.710;14.492;2023-11-22T07:19:58;7.72;;;4.32;;
65471;SDS011;52068;50.710;14.492;2023-11-22T07:22:25;5.47;;;4.10;;
65471;SDS011;52068;50.710;14.492;2023-11-22T07:24:51;5.80;;;4.57;;
65471;SDS011;52068;50.710;14.492;2023-11-22T07:27:19;6.68;;;3.95;;
65471;SDS011;52068;50.710;14.492;2023-11-22T07:29:45;5.70;;;4.03;;
65471;SDS011;52068;50.710;14.492;2023-11-22T07:32:11;5.15;;;3.92;;
65471;SDS011;52068;50.710;14.492;2023-11-22T07:34:37;5.25;;;3.80;;
65471;SDS011;52068;50.710;14.492;2023-11-22T07:37:07;5.32;;;4.20;;
65471;SDS011;52068;50.710;14.492;2023-11-22T07:39:33;4.93;;;3.83;;
65471;SDS011;52068;50.710;14.492;2023-11-22T07:42:00;5.57;;;3.35;;
65471;SDS011;52068;50.710;14.492;2023-11-22T07:44:26;5.97;;;4.18;;
65471;SDS011;52068;50.710;14.492;2023-11-22T07:46:52;5.15;;;3.80;;
65471;SDS011;52068;50.710;14.492;2023-11-22T07:49:19;9.75;;;3.80;;
65471;SDS011;52068;50.710;14.492;2023-11-22T07:51:46;5.22;;;3.60;;
65471;SDS011;52068;50.710;14.492;2023-11-22T07:54:11;5.15;;;3.33;;
65471;SDS011;52068;50.710;14.492;2023-11-22T07:56:40;4.38;;;3.55;;
65471;SDS011;52068;50.710;14.492;2023-11-22T07:59:08;7.15;;;4.10;;
65471;SDS011;52068;50.710;14.492;2023-11-22T08:01:36;4.93;;;3.35;;
65471;SDS011;52068;50.710;14.492;2023-11-22T08:04:03;5.40;;;3.47;;
65471;SDS011;52068;50.710;14.492;2023-11-22T08:06:29;4.10;;;3.58;;
65471;SDS011;52068;50.710;14.492;2023-11-22T08:08:55;5.05;;;3.45;;
65471;SDS011;52068;50.710;14.492;2023-11-22T08:11:21;4.72;;;3.45;;
65471;SDS011;52068;50.710;14.492;2023-11-22T08:13:46;9.65;;;3.63;;
65471;SDS011;52068;50.710;14.492;2023-11-22T08:16:13;5.68;;;3.60;;
65471;SDS011;52068;50.710;14.492;2023-11-22T08:18:38;5.63;;;4.00;;
65471;SDS011;52068;50.710;14.492;2023-11-22T08:21:05;4.00;;;3.55;;
65471;SDS011;52068;50.710;14.492;2023-11-22T08:23:30;4.13;;;3.22;;
65471;SDS011;52068;50.710;14.492;2023-11-22T08:25:58;5.88;;;3.55;;
65471;SDS011;52068;50.710;14.492;2023-11-22T08:28:24;5.15;;;3.70;;
65471;SDS011;52068;50.710;14.492;2023-11-22T08:30:51;4.65;;;3.90;;
65471;SDS011;52068;50.710;14.492;2023-11-22T08:33:16;5.47;;;3.00;;
65471;SDS011;52068;50.710;14.492;2023-11-22T08:35:41;4.13;;;3.50;;
65471;SDS011;52068;50.710;14.492;2023-11-22T08:38:08;4.55;;;3.38;;
65471;SDS011;52068;50.710;14.492;2023-11-22T08:40:34;4.10;;;3.50;;
65471;SDS011;52068;50.710;14.492;2023-11-22T08:43:02;4.00;;;3.20;;
65471;SDS011;52068;50.710;14.492;2023-11-22T08:45:29;3.83;;;3.30;;
65471;SDS011;52068;50.710;14.492;2023-11-22T08:47:56;4.93;;;3.13;;
65471;SDS011;52068;50.710;14.492;2023-11-22T08:50:22;4.45;;;3.33;;
65471;SDS011;52068;50.710;14.492;2023-11-22T08:52:48;3.72;;;3.15;;
65471;SDS011;52068;50.710;14.492;2023-11-22T08:55:17;6.03;;;3.42;;
65471;SDS011;52068;50.710;14.492;2023-11-22T08:57:47;3.88;;;3.47;;
65471;SDS011;52068;50.710;14.492;2023-11-22T09:00:13;3.97;;;3.35;;
65471;SDS011;52068;50.710;14.492;2023-11-22T09:02:39;3.60;;;3.25;;
65471;SDS011;52068;50.710;14.492;2023-11-22T09:05:06;4.63;;;3.47;;
65471;SDS011;52068;50.710;14.492;2023-11-22T09:07:33;6.70;;;3.90;;
65471;SDS011;52068;50.710;14.492;2023-11-22T09:10:00;5.03;;;3.60;;
65471;SDS011;52068;50.710;14.492;2023-11-22T09:12:39;4.55;;;3.08;;
65471;SDS011;52068;50.710;14.492;2023-11-22T09:15:08;3.78;;;3.35;;
65471;SDS011;52068;50.710;14.492;2023-11-22T09:17:51;5.22;;;3.65;;
65471;SDS011;52068;50.710;14.492;2023-11-22T09:20:19;4.00;;;3.38;;
65471;SDS011;52068;50.710;14.492;2023-11-22T09:22:52;4.18;;;3.60;;
65471;SDS011;52068;50.710;14.492;2023-11-22T09:25:20;6.10;;;3.85;;
65471;SDS011;52068;50.710;14.492;2023-11-22T09:27:48;4.40;;;3.17;;
65471;SDS011;52068;50.710;14.492;2023-11-22T09:30:16;4.13;;;3.40;;
65471;SDS011;52068;50.710;14.492;2023-11-22T09:32:57;3.90;;;3.25;;
65471;SDS011;52068;50.710;14.492;2023-11-22T09:35:23;5.13;;;3.28;;
65471;SDS011;52068;50.710;14.492;2023-11-22T09:37:48;4.15;;;3.75;;
65471;SDS011;52068;50.710;14.492;2023-11-22T09:40:16;3.70;;;3.28;;
65471;SDS011;52068;50.710;14.492;2023-11-22T09:42:43;4.47;;;3.40;;
65471;SDS011;52068;50.710;14.492;2023-11-22T09:47:43;5.05;;;3.50;;
65471;SDS011;52068;50.710;14.492;2023-11-22T09:50:10;3.53;;;3.08;;
65471;SDS011;52068;50.710;14.492;2023-11-22T09:52:42;4.55;;;3.10;;
65471;SDS011;52068;50.710;14.492;2023-11-22T09:55:09;3.55;;;3.22;;
65471;SDS011;52068;50.710;14.492;2023-11-22T09:57:35;3.65;;;2.92;;
65471;SDS011;52068;50.710;14.492;2023-11-22T10:00:03;4.00;;;3.53;;
65471;SDS011;52068;50.710;14.492;2023-11-22T10:02:31;4.00;;;3.35;;
65471;SDS011;52068;50.710;14.492;2023-11-22T10:04:56;3.55;;;3.00;;
65471;SDS011;52068;50.710;14.492;2023-11-22T10:07:22;3.70;;;3.30;;
65471;SDS011;52068;50.710;14.492;2023-11-22T10:09:48;4.57;;;3.40;;
65471;SDS011;52068;50.710;14.492;2023-11-22T10:12:13;3.30;;;3.00;;
65471;SDS011;52068;50.710;14.492;2023-11-22T10:14:45;5.17;;;3.60;;
65471;SDS011;52068;50.710;14.492;2023-11-22T10:17:11;4.10;;;3.25;;
65471;SDS011;52068;50.710;14.492;2023-11-22T10:19:37;4.45;;;3.03;;
65471;SDS011;52068;50.710;14.492;2023-11-22T10:22:03;3.55;;;3.20;;
65471;SDS011;52068;50.710;14.492;2023-11-22T10:24:33;4.07;;;3.40;;
65471;SDS011;52068;50.710;14.492;2023-11-22T10:26:59;3.63;;;3.28;;
65471;SDS011;52068;50.710;14.492;2023-11-22T10:29:25;3.53;;;2.95;;
65471;SDS011;52068;50.710;14.492;2023-11-22T10:31:51;3.58;;;3.28;;
65471;SDS011;52068;50.710;14.492;2023-11-22T10:34:19;4.55;;;3.67;;
65471;SDS011;52068;50.710;14.492;2023-11-22T10:36:45;3.92;;;3.20;;
65471;SDS011;52068;50.710;14.492;2023-11-22T10:39:12;3.92;;;3.47;;
65471;SDS011;52068;50.710;14.492;2023-11-22T10:41:41;3.53;;;3.15;;
65471;SDS011;52068;50.710;14.492;2023-11-22T10:44:07;3.78;;;3.13;;
65471;SDS011;52068;50.710;14.492;2023-11-22T10:46:33;4.43;;;3.55;;
65471;SDS011;52068;50.710;14.492;2023-11-22T10:48:59;3.95;;;3.33;;
65471;SDS011;52068;50.710;14.492;2023-11-22T10:51:26;3.53;;;3.13;;
65471;SDS011;52068;50.710;14.492;2023-11-22T10:53:56;4.27;;;3.63;;
65471;SDS011;52068;50.710;14.492;2023-11-22T10:56:23;3.92;;;3.35;;
65471;SDS011;52068;50.710;14.492;2023-11-22T10:58:52;3.97;;;3.28;;
65471;SDS011;52068;50.710;14.492;2023-11-22T11:01:23;4.75;;;3.35;;
65471;SDS011;52068;50.710;14.492;2023-11-22T11:03:56;4.88;;;3.28;;
65471;SDS011;52068;50.710;14.492;2023-11-22T11:06:32;4.32;;;3.20;;
65471;SDS011;52068;50.710;14.492;2023-11-22T11:09:00;5.00;;;3.40;;
65471;SDS011;52068;50.710;14.492;2023-11-22T11:11:30;5.88;;;3.78;;
65471;SDS011;52068;50.710;14.492;2023-11-22T11:13:57;5.38;;;3.65;;
65471;SDS011;52068;50.710;14.492;2023-11-22T11:16:23;4.30;;;3.42;;
65471;SDS011;52068;50.710;14.492;2023-11-22T11:18:49;5.10;;;3.67;;
65471;SDS011;52068;50.710;14.492;2023-11-22T11:21:15;4.07;;;3.47;;
65471;SDS011;52068;50.710;14.492;2023-11-22T11:23:41;4.60;;;3.13;;
65471;SDS011;52068;50.710;14.492;2023-11-22T11:26:16;4.97;;;3.75;;
65471;SDS011;52068;50.710;14.492;2023-11-22T11:28:45;4.20;;;3.22;;
65471;SDS011;52068;50.710;14.492;2023-11-22T11:31:14;4.50;;;3.60;;
65471;SDS011;52068;50.710;14.492;2023-11-22T11:38:52;4.18;;;3.33;;
65471;SDS011;52068;50.710;14.492;2023-11-22T11:41:22;4.78;;;3.42;;
65471;SDS011;52068;50.710;14.492;2023-11-22T11:43:55;5.30;;;3.80;;
65471;SDS011;52068;50.710;14.492;2023-11-22T11:46:22;4.43;;;3.67;;
65471;SDS011;52068;50.710;14.492;2023-11-22T11:48:48;5.20;;;3.40;;
65471;SDS011;52068;50.710;14.492;2023-11-22T11:51:16;4.25;;;3.20;;
65471;SDS011;52068;50.710;14.492;2023-11-22T11:53:42;6.53;;;4.18;;
65471;SDS011;52068;50.710;14.492;2023-11-22T11:56:09;4.90;;;3.75;;
65471;SDS011;52068;50.710;14.492;2023-11-22T11:58:35;5.75;;;3.60;;
65471;SDS011;52068;50.710;14.492;2023-11-22T12:01:00;4.00;;;3.47;;
65471;SDS011;52068;50.710;14.492;2023-11-22T12:03:27;5.60;;;3.70;;
65471;SDS011;52068;50.710;14.492;2023-11-22T12:05:53;4.70;;;3.75;;
65471;SDS011;52068;50.710;14.492;2023-11-22T12:08:18;6.43;;;3.95;;
65471;SDS011;52068;50.710;14.492;2023-11-22T12:10:44;4.00;;;3.60;;
65471;SDS011;52068;50.710;14.492;2023-11-22T12:13:16;4.55;;;3.40;;
65471;SDS011;52068;50.710;14.492;2023-11-22T12:15:46;4.68;;;3.70;;
65471;SDS011;52068;50.710;14.492;2023-11-22T12:18:12;5.28;;;3.60;;
65471;SDS011;52068;50.710;14.492;2023-11-22T12:20:38;4.78;;;3.50;;
65471;SDS011;52068;50.710;14.492;2023-11-22T12:23:04;4.72;;;3.17;;
65471;SDS011;52068;50.710;14.492;2023-11-22T12:25:30;5.03;;;3.63;;
65471;SDS011;52068;50.710;14.492;2023-11-22T12:27:56;4.80;;;3.40;;
65471;SDS011;52068;50.710;14.492;2023-11-22T12:30:31;4.13;;;3.60;;
65471;SDS011;52068;50.710;14.492;2023-11-22T12:33:04;4.68;;;3.83;;
65471;SDS011;52068;50.710;14.492;2023-11-22T12:35:32;3.95;;;3.53;;
65471;SDS011;52068;50.710;14.492;2023-11-22T12:38:02;4.20;;;3.45;;
65471;SDS011;52068;50.710;14.492;2023-11-22T12:40:30;5.30;;;3.40;;
65471;SDS011;52068;50.710;14.492;2023-11-22T12:42:56;4.82;;;3.95;;
65471;SDS011;52068;50.710;14.492;2023-11-22T12:45:23;4.13;;;3.50;;
65471;SDS011;52068;50.710;14.492;2023-11-22T12:47:52;5.65;;;3.63;;
65471;SDS011;52068;50.710;14.492;2023-11-22T12:50:32;8.15;;;3.97;;
65471;SDS011;52068;50.710;14.492;2023-11-22T12:53:07;4.35;;;3.50;;
65471;SDS011;52068;50.710;14.492;2023-11-22T12:55:35;5.20;;;3.72;;
65471;SDS011;52068;50.710;14.492;2023-11-22T12:58:02;3.80;;;3.35;;
65471;SDS011;52068;50.710;14.492;2023-11-22T13:00:28;4.80;;;4.00;;
65471;SDS011;52068;50.710;14.492;2023-11-22T13:02:57;4.45;;;3.78;;
65471;SDS011;52068;50.710;14.492;2023-11-22T13:05:23;4.45;;;3.85;;
65471;SDS011;52068;50.710;14.492;2023-11-22T13:07:49;5.05;;;3.72;;
65471;SDS011;52068;50.710;14.492;2023-11-22T13:10:15;4.93;;;3.60;;
65471;SDS011;52068;50.710;14.492;2023-11-22T13:12:42;5.00;;;3.70;;
65471;SDS011;52068;50.710;14.492;2023-11-22T13:15:09;5.80;;;4.07;;
65471;SDS011;52068;50.710;14.492;2023-11-22T13:17:36;6.70;;;3.83;;
65471;SDS011;52068;50.710;14.492;2023-11-22T13:20:02;4.82;;;3.75;;
65471;SDS011;52068;50.710;14.492;2023-11-22T13:22:30;5.65;;;4.13;;
65471;SDS011;52068;50.710;14.492;2023-11-22T13:24:56;3.95;;;3.55;;
65471;SDS011;52068;50.710;14.492;2023-11-22T13:27:23;5.03;;;3.65;;
65471;SDS011;52068;50.710;14.492;2023-11-22T13:29:49;5.18;;;3.90;;
65471;SDS011;52068;50.710;14.492;2023-11-22T13:32:14;4.43;;;3.47;;
65471;SDS011;52068;50.710;14.492;2023-11-22T13:34:41;5.55;;;3.50;;
65471;SDS011;52068;50.710;14.492;2023-11-22T13:37:07;5.07;;;3.70;;
65471;SDS011;52068;50.710;14.492;2023-11-22T13:39:33;5.38;;;3.92;;
65471;SDS011;52068;50.710;14.492;2023-11-22T13:41:58;4.45;;;3.72;;
65471;SDS011;52068;50.710;14.492;2023-11-22T13:44:23;7.68;;;4.07;;
65471;SDS011;52068;50.710;14.492;2023-11-22T13:46:49;5.65;;;3.70;;
65471;SDS011;52068;50.710;14.492;2023-11-22T13:49:14;4.13;;;3.42;;
65471;SDS011;52068;50.710;14.492;2023-11-22T13:51:40;4.75;;;3.80;;
65471;SDS011;52068;50.710;14.492;2023-11-22T13:54:05;3.95;;;3.55;;
65471;SDS011;52068;50.710;14.492;2023-11-22T13:56:30;4.65;;;3.67;;
65471;SDS011;52068;50.710;14.492;2023-11-22T13:58:56;5.55;;;3.90;;
65471;SDS011;52068;50.710;14.492;2023-11-22T14:01:22;4.05;;;3.35;;
65471;SDS011;52068;50.710;14.492;2023-11-22T14:03:47;5.20;;;3.40;;
65471;SDS011;52068;50.710;14.492;2023-11-22T14:06:13;4.47;;;3.53;;
65471;SDS011;52068;50.710;14.492;2023-11-22T14:08:41;5.65;;;3.83;;
65471;SDS011;52068;50.710;14.492;2023-11-22T14:11:07;4.50;;;3.35;;
65471;SDS011;52068;50.710;14.492;2023-11-22T14:13:32;6.22;;;4.10;;
65471;SDS011;52068;50.710;14.492;2023-11-22T14:15:58;3.83;;;3.40;;
65471;SDS011;52068;50.710;14.492;2023-11-22T14:18:23;4.00;;;3.25;;
65471;SDS011;52068;50.710;14.492;2023-11-22T14:20:50;8.90;;;4.15;;
65471;SDS011;52068;50.710;14.492;2023-11-22T14:23:16;4.93;;;4.00;;
65471;SDS011;52068;50.710;14.492;2023-11-22T14:25:42;4.93;;;3.95;;
65471;SDS011;52068;50.710;14.492;2023-11-22T14:28:07;4.97;;;4.03;;
65471;SDS011;52068;50.710;14.492;2023-11-22T14:30:33;4.20;;;3.40;;
65471;SDS011;52068;50.710;14.492;2023-11-22T14:33:01;5.30;;;3.92;;
65471;SDS011;52068;50.710;14.492;2023-11-22T14:35:31;5.25;;;4.22;;
65471;SDS011;52068;50.710;14.492;2023-11-22T14:37:57;5.07;;;3.83;;
65471;SDS011;52068;50.710;14.492;2023-11-22T14:40:24;4.55;;;3.60;;
65471;SDS011;52068;50.710;14.492;2023-11-22T14:42:50;4.30;;;3.90;;